sensor_id;sensor_type;location;lat;lon;timestamp;P1;durP1;ratioP1;P2;durP2;ratioP2
69417;SDS011;56610;48.872;2.400;2023-04-03T00:01:15;9.02;;;7.35;;
69417;SDS011;56610;48.872;2.400;2023-04-03T00:03:41;8.88;;;7.28;;
69417;SDS011;56610;48.872;2.400;2023-04-03T00:06:07;8.73;;;7.88;;
69417;SDS011;56610;48.872;2.400;2023-04-03T00:08:35;8.70;;;7.85;;
69417;SDS011;56610;48.872;2.400;2023-04-03T00:11:01;9.35;;;8.45;;
69417;SDS011;56610;48.872;2.400;2023-04-03T00:13:27;8.23;;;7.25;;
69417;SDS011;56610;48.872;2.400;2023-04-03T00:15:52;9.13;;;8.23;;
69417;SDS011;56610;48.872;2.400;2023-04-03T00:18:18;9.55;;;8.45;;
69417;SDS011;56610;48.872;2.400;2023-04-03T00:20:44;9.50;;;8.60;;
69417;SDS011;56610;48.872;2.400;2023-04-03T00:23:10;10.00;;;8.60;;
69417;SDS011;56610;48.872;2.400;2023-04-03T00:25:36;8.85;;;7.95;;
69417;SDS011;56610;48.872;2.400;2023-04-03T00:28:02;8.05;;;7.25;;
69417;SDS011;56610;48.872;2.400;2023-04-03T00:30:28;9.23;;;7.95;;
69417;SDS011;56610;48.872;2.400;2023-04-03T00:32:54;8.65;;;7.85;;
69417;SDS011;56610;48.872;2.400;2023-04-03T00:35:20;8.63;;;7.78;;
69417;SDS011;56610;48.872;2.400;2023-04-03T00:37:47;10.90;;;8.38;;
69417;SDS011;56610;48.872;2.400;2023-04-03T00:40:14;10.13;;;9.13;;
69417;SDS011;56610;48.872;2.400;2023-04-03T00:42:40;9.02;;;8.20;;
69417;SDS011;56610;48.872;2.400;2023-04-03T00:47:36;9.48;;;8.52;;
69417;SDS011;56610;48.872;2.400;2023-04-03T00:50:03;9.75;;;8.75;;
69417;SDS011;56610;48.872;2.400;2023-04-03T00:52:29;10.10;;;9.10;;
69417;SDS011;56610;48.872;2.400;2023-04-03T00:54:57;9.63;;;8.60;;
69417;SDS011;56610;48.872;2.400;2023-04-03T00:57:26;9.52;;;8.63;;
69417;SDS011;56610;48.872;2.400;2023-04-03T00:59:54;9.05;;;8.15;;
69417;SDS011;56610;48.872;2.400;2023-04-03T01:02:24;9.75;;;8.75;;
69417;SDS011;56610;48.872;2.400;2023-04-03T01:04:51;10.20;;;9.15;;
69417;SDS011;56610;48.872;2.400;2023-04-03T01:07:18;9.60;;;8.73;;
69417;SDS011;56610;48.872;2.400;2023-04-03T01:09:47;8.88;;;8.05;;
69417;SDS011;56610;48.872;2.400;2023-04-03T01:14:55;9.88;;;8.70;;
69417;SDS011;56610;48.872;2.400;2023-04-03T01:20:02;9.45;;;8.27;;
69417;SDS011;56610;48.872;2.400;2023-04-03T01:25:34;10.65;;;8.45;;
69417;SDS011;56610;48.872;2.400;2023-04-03T01:28:28;9.75;;;8.75;;
69417;SDS011;56610;48.872;2.400;2023-04-03T01:33:37;9.57;;;8.40;;
69417;SDS011;56610;48.872;2.400;2023-04-03T01:36:03;9.48;;;8.52;;
69417;SDS011;56610;48.872;2.400;2023-04-03T01:38:30;9.00;;;8.20;;
69417;SDS011;56610;48.872;2.400;2023-04-03T01:40:55;9.40;;;8.43;;
69417;SDS011;56610;48.872;2.400;2023-04-03T01:43:21;10.13;;;9.23;;
69417;SDS011;56610;48.872;2.400;2023-04-03T01:45:47;9.00;;;8.20;;
69417;SDS011;56610;48.872;2.400;2023-04-03T01:48:14;10.90;;;8.68;;
69417;SDS011;56610;48.872;2.400;2023-04-03T01:50:40;9.73;;;8.73;;
69417;SDS011;56610;48.872;2.400;2023-04-03T01:53:06;7.85;;;7.05;;
69417;SDS011;56610;48.872;2.400;2023-04-03T01:55:31;8.88;;;7.97;;
69417;SDS011;56610;48.872;2.400;2023-04-03T01:57:57;8.63;;;7.75;;
69417;SDS011;56610;48.872;2.400;2023-04-03T02:00:23;7.95;;;7.15;;
69417;SDS011;56610;48.872;2.400;2023-04-03T02:02:48;8.13;;;7.32;;
69417;SDS011;56610;48.872;2.400;2023-04-03T02:05:14;8.02;;;7.32;;
69417;SDS011;56610;48.872;2.400;2023-04-03T02:07:40;7.93;;;7.15;;
69417;SDS011;56610;48.872;2.400;2023-04-03T02:10:06;8.68;;;7.80;;
69417;SDS011;56610;48.872;2.400;2023-04-03T02:12:32;9.18;;;8.18;;
69417;SDS011;56610;48.872;2.400;2023-04-03T02:14:58;8.60;;;7.75;;
69417;SDS011;56610;48.872;2.400;2023-04-03T02:17:23;7.95;;;7.25;;
69417;SDS011;56610;48.872;2.400;2023-04-03T02:19:49;7.80;;;7.00;;
69417;SDS011;56610;48.872;2.400;2023-04-03T02:22:15;7.70;;;7.00;;
69417;SDS011;56610;48.872;2.400;2023-04-03T02:24:40;7.38;;;6.68;;
69417;SDS011;56610;48.872;2.400;2023-04-03T02:27:06;6.82;;;6.00;;
69417;SDS011;56610;48.872;2.400;2023-04-03T02:29:32;6.55;;;5.95;;
69417;SDS011;56610;48.872;2.400;2023-04-03T02:31:58;7.15;;;6.47;;
69417;SDS011;56610;48.872;2.400;2023-04-03T02:34:23;7.03;;;6.43;;
69417;SDS011;56610;48.872;2.400;2023-04-03T02:36:49;8.23;;;6.75;;
69417;SDS011;56610;48.872;2.400;2023-04-03T02:39:15;8.32;;;7.53;;
69417;SDS011;56610;48.872;2.400;2023-04-03T02:41:41;8.95;;;7.88;;
69417;SDS011;56610;48.872;2.400;2023-04-03T02:44:08;8.68;;;7.82;;
69417;SDS011;56610;48.872;2.400;2023-04-03T02:46:35;8.43;;;7.63;;
69417;SDS011;56610;48.872;2.400;2023-04-03T02:49:01;8.68;;;7.88;;
69417;SDS011;56610;48.872;2.400;2023-04-03T02:51:27;8.70;;;7.80;;
69417;SDS011;56610;48.872;2.400;2023-04-03T02:53:52;8.75;;;7.90;;
69417;SDS011;56610;48.872;2.400;2023-04-03T02:56:18;8.02;;;6.85;;
69417;SDS011;56610;48.872;2.400;2023-04-03T02:58:45;8.07;;;7.38;;
69417;SDS011;56610;48.872;2.400;2023-04-03T03:01:11;7.80;;;6.93;;
69417;SDS011;56610;48.872;2.400;2023-04-03T03:03:37;6.78;;;6.18;;
69417;SDS011;56610;48.872;2.400;2023-04-03T03:06:09;7.50;;;6.80;;
69417;SDS011;56610;48.872;2.400;2023-04-03T03:08:37;6.85;;;6.25;;
69417;SDS011;56610;48.872;2.400;2023-04-03T03:11:03;6.18;;;5.68;;
69417;SDS011;56610;48.872;2.400;2023-04-03T03:13:30;6.75;;;6.07;;
69417;SDS011;56610;48.872;2.400;2023-04-03T03:15:56;6.63;;;5.78;;
69417;SDS011;56610;48.872;2.400;2023-04-03T03:18:21;6.28;;;5.78;;
69417;SDS011;56610;48.872;2.400;2023-04-03T03:20:50;7.13;;;6.50;;
69417;SDS011;56610;48.872;2.400;2023-04-03T03:23:17;6.25;;;5.65;;
69417;SDS011;56610;48.872;2.400;2023-04-03T03:25:43;7.40;;;6.20;;
69417;SDS011;56610;48.872;2.400;2023-04-03T03:28:08;9.32;;;6.28;;
69417;SDS011;56610;48.872;2.400;2023-04-03T03:30:34;6.15;;;5.53;;
69417;SDS011;56610;48.872;2.400;2023-04-03T03:33:00;7.38;;;6.68;;
69417;SDS011;56610;48.872;2.400;2023-04-03T03:35:26;7.28;;;6.68;;
69417;SDS011;56610;48.872;2.400;2023-04-03T03:37:52;6.10;;;5.50;;
69417;SDS011;56610;48.872;2.400;2023-04-03T03:40:17;6.60;;;6.00;;
69417;SDS011;56610;48.872;2.400;2023-04-03T03:42:43;5.82;;;5.28;;
69417;SDS011;56610;48.872;2.400;2023-04-03T03:45:08;7.03;;;6.40;;
69417;SDS011;56610;48.872;2.400;2023-04-03T03:47:35;6.70;;;6.10;;
69417;SDS011;56610;48.872;2.400;2023-04-03T03:50:00;6.65;;;6.05;;
69417;SDS011;56610;48.872;2.400;2023-04-03T03:52:26;6.75;;;6.10;;
69417;SDS011;56610;48.872;2.400;2023-04-03T03:54:52;6.45;;;5.85;;
69417;SDS011;56610;48.872;2.400;2023-04-03T03:57:17;6.20;;;5.70;;
69417;SDS011;56610;48.872;2.400;2023-04-03T03:59:43;6.03;;;5.53;;
69417;SDS011;56610;48.872;2.400;2023-04-03T04:02:09;6.55;;;5.95;;
69417;SDS011;56610;48.872;2.400;2023-04-03T04:04:36;5.72;;;5.22;;
69417;SDS011;56610;48.872;2.400;2023-04-03T04:07:02;7.13;;;6.53;;
69417;SDS011;56610;48.872;2.400;2023-04-03T04:09:28;6.53;;;6.03;;
69417;SDS011;56610;48.872;2.400;2023-04-03T04:11:54;7.00;;;6.40;;
69417;SDS011;56610;48.872;2.400;2023-04-03T04:14:20;6.60;;;6.00;;
69417;SDS011;56610;48.872;2.400;2023-04-03T04:16:46;6.90;;;6.20;;
69417;SDS011;56610;48.872;2.400;2023-04-03T04:19:12;6.03;;;5.53;;
69417;SDS011;56610;48.872;2.400;2023-04-03T04:21:38;5.57;;;5.07;;
69417;SDS011;56610;48.872;2.400;2023-04-03T04:24:04;6.25;;;5.65;;
69417;SDS011;56610;48.872;2.400;2023-04-03T04:26:30;5.40;;;5.00;;
69417;SDS011;56610;48.872;2.400;2023-04-03T04:28:56;5.22;;;4.72;;
69417;SDS011;56610;48.872;2.400;2023-04-03T04:31:22;5.47;;;4.97;;
69417;SDS011;56610;48.872;2.400;2023-04-03T04:33:47;6.70;;;6.00;;
69417;SDS011;56610;48.872;2.400;2023-04-03T04:36:13;6.97;;;6.38;;
69417;SDS011;56610;48.872;2.400;2023-04-03T04:38:39;5.88;;;5.38;;
69417;SDS011;56610;48.872;2.400;2023-04-03T04:41:05;6.78;;;6.18;;
69417;SDS011;56610;48.872;2.400;2023-04-03T04:43:31;6.20;;;5.70;;
69417;SDS011;56610;48.872;2.400;2023-04-03T04:46:01;6.00;;;5.50;;
69417;SDS011;56610;48.872;2.400;2023-04-03T04:48:34;7.50;;;5.93;;
69417;SDS011;56610;48.872;2.400;2023-04-03T04:51:00;6.13;;;5.60;;
69417;SDS011;56610;48.872;2.400;2023-04-03T04:53:26;7.35;;;6.50;;
69417;SDS011;56610;48.872;2.400;2023-04-03T04:55:52;6.68;;;6.10;;
69417;SDS011;56610;48.872;2.400;2023-04-03T04:58:18;5.97;;;5.47;;
69417;SDS011;56610;48.872;2.400;2023-04-03T05:00:43;5.90;;;5.32;;
69417;SDS011;56610;48.872;2.400;2023-04-03T05:03:09;5.05;;;4.55;;
69417;SDS011;56610;48.872;2.400;2023-04-03T05:05:35;4.95;;;4.53;;
69417;SDS011;56610;48.872;2.400;2023-04-03T05:08:01;5.63;;;5.05;;
69417;SDS011;56610;48.872;2.400;2023-04-03T05:10:27;5.78;;;5.28;;
69417;SDS011;56610;48.872;2.400;2023-04-03T05:12:53;6.32;;;5.82;;
69417;SDS011;56610;48.872;2.400;2023-04-03T05:15:18;5.05;;;4.63;;
69417;SDS011;56610;48.872;2.400;2023-04-03T05:17:44;5.30;;;4.78;;
69417;SDS011;56610;48.872;2.400;2023-04-03T05:20:10;4.65;;;4.25;;
69417;SDS011;56610;48.872;2.400;2023-04-03T05:22:36;6.35;;;5.30;;
69417;SDS011;56610;48.872;2.400;2023-04-03T05:25:02;5.88;;;5.38;;
69417;SDS011;56610;48.872;2.400;2023-04-03T05:27:29;6.05;;;5.55;;
69417;SDS011;56610;48.872;2.400;2023-04-03T05:29:55;5.90;;;5.40;;
69417;SDS011;56610;48.872;2.400;2023-04-03T05:32:21;5.63;;;5.13;;
69417;SDS011;56610;48.872;2.400;2023-04-03T05:34:48;6.03;;;5.43;;
69417;SDS011;56610;48.872;2.400;2023-04-03T05:37:14;6.93;;;6.22;;
69417;SDS011;56610;48.872;2.400;2023-04-03T05:39:39;5.40;;;5.00;;
69417;SDS011;56610;48.872;2.400;2023-04-03T05:42:06;6.18;;;5.55;;
69417;SDS011;56610;48.872;2.400;2023-04-03T05:44:32;6.15;;;5.25;;
69417;SDS011;56610;48.872;2.400;2023-04-03T05:46:58;5.95;;;5.38;;
69417;SDS011;56610;48.872;2.400;2023-04-03T05:49:27;5.70;;;4.97;;
69417;SDS011;56610;48.872;2.400;2023-04-03T05:51:52;5.30;;;4.70;;
69417;SDS011;56610;48.872;2.400;2023-04-03T05:54:28;6.20;;;5.63;;
69417;SDS011;56610;48.872;2.400;2023-04-03T05:56:55;5.30;;;4.80;;
69417;SDS011;56610;48.872;2.400;2023-04-03T05:59:21;4.90;;;4.50;;
69417;SDS011;56610;48.872;2.400;2023-04-03T06:01:47;5.35;;;4.85;;
69417;SDS011;56610;48.872;2.400;2023-04-03T06:04:15;6.82;;;6.20;;
69417;SDS011;56610;48.872;2.400;2023-04-03T06:06:52;5.55;;;5.05;;
69417;SDS011;56610;48.872;2.400;2023-04-03T06:09:20;5.57;;;5.07;;
69417;SDS011;56610;48.872;2.400;2023-04-03T06:11:49;5.63;;;4.95;;
69417;SDS011;56610;48.872;2.400;2023-04-03T06:14:15;5.93;;;4.55;;
69417;SDS011;56610;48.872;2.400;2023-04-03T06:16:41;4.80;;;4.40;;
69417;SDS011;56610;48.872;2.400;2023-04-03T06:19:07;5.70;;;5.10;;
69417;SDS011;56610;48.872;2.400;2023-04-03T06:21:36;5.38;;;4.88;;
69417;SDS011;56610;48.872;2.400;2023-04-03T06:24:03;6.07;;;5.47;;
69417;SDS011;56610;48.872;2.400;2023-04-03T06:26:30;5.65;;;5.15;;
69417;SDS011;56610;48.872;2.400;2023-04-03T06:28:56;6.10;;;5.50;;
69417;SDS011;56610;48.872;2.400;2023-04-03T06:31:22;5.68;;;5.18;;
69417;SDS011;56610;48.872;2.400;2023-04-03T06:33:48;5.25;;;4.75;;
69417;SDS011;56610;48.872;2.400;2023-04-03T06:36:13;5.60;;;5.15;;
69417;SDS011;56610;48.872;2.400;2023-04-03T06:38:44;5.47;;;4.50;;
69417;SDS011;56610;48.872;2.400;2023-04-03T06:41:10;6.07;;;5.00;;
69417;SDS011;56610;48.872;2.400;2023-04-03T06:43:35;5.55;;;5.07;;
69417;SDS011;56610;48.872;2.400;2023-04-03T06:46:01;5.65;;;5.15;;
69417;SDS011;56610;48.872;2.400;2023-04-03T06:48:27;5.40;;;4.90;;
69417;SDS011;56610;48.872;2.400;2023-04-03T06:50:53;5.07;;;4.57;;
69417;SDS011;56610;48.872;2.400;2023-04-03T06:53:18;5.47;;;4.43;;
69417;SDS011;56610;48.872;2.400;2023-04-03T06:55:44;5.10;;;4.60;;
69417;SDS011;56610;48.872;2.400;2023-04-03T06:58:10;6.35;;;4.28;;
69417;SDS011;56610;48.872;2.400;2023-04-03T07:00:35;4.90;;;4.22;;
69417;SDS011;56610;48.872;2.400;2023-04-03T07:03:01;5.30;;;4.80;;
69417;SDS011;56610;48.872;2.400;2023-04-03T07:05:27;5.30;;;4.68;;
69417;SDS011;56610;48.872;2.400;2023-04-03T07:07:53;4.80;;;4.40;;
69417;SDS011;56610;48.872;2.400;2023-04-03T07:10:19;5.25;;;4.05;;
69417;SDS011;56610;48.872;2.400;2023-04-03T07:12:44;4.68;;;4.15;;
69417;SDS011;56610;48.872;2.400;2023-04-03T07:15:10;5.18;;;4.68;;
69417;SDS011;56610;48.872;2.400;2023-04-03T07:17:37;5.13;;;4.70;;
69417;SDS011;56610;48.872;2.400;2023-04-03T07:20:03;6.35;;;4.25;;
69417;SDS011;56610;48.872;2.400;2023-04-03T07:22:29;5.35;;;4.80;;
69417;SDS011;56610;48.872;2.400;2023-04-03T07:24:55;5.65;;;4.93;;
69417;SDS011;56610;48.872;2.400;2023-04-03T07:27:21;5.22;;;4.70;;
69417;SDS011;56610;48.872;2.400;2023-04-03T07:29:47;5.97;;;4.80;;
69417;SDS011;56610;48.872;2.400;2023-04-03T07:32:15;5.03;;;4.63;;
69417;SDS011;56610;48.872;2.400;2023-04-03T07:34:41;5.75;;;5.15;;
69417;SDS011;56610;48.872;2.400;2023-04-03T07:37:07;5.53;;;4.75;;
69417;SDS011;56610;48.872;2.400;2023-04-03T07:39:34;5.53;;;4.97;;
69417;SDS011;56610;48.872;2.400;2023-04-03T07:41:59;4.90;;;4.45;;
69417;SDS011;56610;48.872;2.400;2023-04-03T07:44:25;4.40;;;4.00;;
69417;SDS011;56610;48.872;2.400;2023-04-03T07:46:51;5.75;;;4.85;;
69417;SDS011;56610;48.872;2.400;2023-04-03T07:49:17;4.43;;;3.88;;
69417;SDS011;56610;48.872;2.400;2023-04-03T07:51:43;4.65;;;4.25;;
69417;SDS011;56610;48.872;2.400;2023-04-03T07:54:09;5.05;;;3.83;;
69417;SDS011;56610;48.872;2.400;2023-04-03T07:56:35;5.07;;;4.35;;
69417;SDS011;56610;48.872;2.400;2023-04-03T07:59:00;4.70;;;3.70;;
69417;SDS011;56610;48.872;2.400;2023-04-03T08:01:26;3.78;;;3.40;;
69417;SDS011;56610;48.872;2.400;2023-04-03T08:03:52;3.55;;;3.25;;
69417;SDS011;56610;48.872;2.400;2023-04-03T08:06:18;4.43;;;3.53;;
69417;SDS011;56610;48.872;2.400;2023-04-03T08:08:43;3.60;;;3.30;;
69417;SDS011;56610;48.872;2.400;2023-04-03T08:11:09;3.70;;;3.33;;
69417;SDS011;56610;48.872;2.400;2023-04-03T08:13:36;3.55;;;3.20;;
69417;SDS011;56610;48.872;2.400;2023-04-03T08:16:09;3.80;;;3.50;;
69417;SDS011;56610;48.872;2.400;2023-04-03T08:18:36;3.72;;;3.42;;
69417;SDS011;56610;48.872;2.400;2023-04-03T08:21:10;3.22;;;2.92;;
69417;SDS011;56610;48.872;2.400;2023-04-03T08:23:36;3.00;;;2.70;;
69417;SDS011;56610;48.872;2.400;2023-04-03T08:26:07;4.47;;;2.60;;
69417;SDS011;56610;48.872;2.400;2023-04-03T08:28:33;2.88;;;2.58;;
69417;SDS011;56610;48.872;2.400;2023-04-03T08:31:02;2.55;;;2.30;;
69417;SDS011;56610;48.872;2.400;2023-04-03T08:33:30;3.72;;;2.50;;
69417;SDS011;56610;48.872;2.400;2023-04-03T08:35:57;2.90;;;1.90;;
69417;SDS011;56610;48.872;2.400;2023-04-03T08:38:22;3.65;;;2.10;;
69417;SDS011;56610;48.872;2.400;2023-04-03T08:40:58;2.55;;;2.00;;
69417;SDS011;56610;48.872;2.400;2023-04-03T08:46:33;2.45;;;1.80;;
69417;SDS011;56610;48.872;2.400;2023-04-03T08:49:10;2.03;;;1.70;;
69417;SDS011;56610;48.872;2.400;2023-04-03T08:51:46;2.25;;;1.65;;
69417;SDS011;56610;48.872;2.400;2023-04-03T08:54:24;3.83;;;2.17;;
69417;SDS011;56610;48.872;2.400;2023-04-03T08:56:55;2.85;;;1.83;;
69417;SDS011;56610;48.872;2.400;2023-04-03T08:59:24;2.40;;;2.05;;
69417;SDS011;56610;48.872;2.400;2023-04-03T09:01:53;2.92;;;2.35;;
69417;SDS011;56610;48.872;2.400;2023-04-03T09:04:21;2.30;;;2.10;;
69417;SDS011;56610;48.872;2.400;2023-04-03T09:06:49;2.03;;;1.83;;
69417;SDS011;56610;48.872;2.400;2023-04-03T09:09:25;4.93;;;2.38;;
69417;SDS011;56610;48.872;2.400;2023-04-03T09:15:05;2.08;;;1.70;;
69417;SDS011;56610;48.872;2.400;2023-04-03T09:23:18;1.85;;;1.75;;
69417;SDS011;56610;48.872;2.400;2023-04-03T09:25:57;2.53;;;1.77;;
69417;SDS011;56610;48.872;2.400;2023-04-03T09:28:30;2.17;;;1.90;;
69417;SDS011;56610;48.872;2.400;2023-04-03T09:31:10;3.17;;;1.75;;
69417;SDS011;56610;48.872;2.400;2023-04-03T09:33:43;1.65;;;1.55;;
69417;SDS011;56610;48.872;2.400;2023-04-03T09:36:10;6.88;;;1.92;;
69417;SDS011;56610;48.872;2.400;2023-04-03T09:38:36;2.45;;;1.90;;
69417;SDS011;56610;48.872;2.400;2023-04-03T09:41:13;1.85;;;1.75;;
69417;SDS011;56610;48.872;2.400;2023-04-03T09:43:51;2.65;;;2.08;;
69417;SDS011;56610;48.872;2.400;2023-04-03T09:46:29;4.03;;;1.75;;
69417;SDS011;56610;48.872;2.400;2023-04-03T09:49:01;2.17;;;1.60;;
69417;SDS011;56610;48.872;2.400;2023-04-03T09:51:29;2.10;;;1.80;;
69417;SDS011;56610;48.872;2.400;2023-04-03T09:53:56;2.60;;;1.52;;
69417;SDS011;56610;48.872;2.400;2023-04-03T09:56:24;2.55;;;1.73;;
69417;SDS011;56610;48.872;2.400;2023-04-03T09:59:06;2.42;;;1.60;;
69417;SDS011;56610;48.872;2.400;2023-04-03T10:01:39;2.78;;;1.70;;
69417;SDS011;56610;48.872;2.400;2023-04-03T10:04:17;3.95;;;1.85;;
69417;SDS011;56610;48.872;2.400;2023-04-03T10:09:17;3.08;;;1.83;;
69417;SDS011;56610;48.872;2.400;2023-04-03T10:11:58;2.05;;;1.50;;
69417;SDS011;56610;48.872;2.400;2023-04-03T10:14:30;1.83;;;1.40;;
69417;SDS011;56610;48.872;2.400;2023-04-03T10:17:09;3.00;;;1.80;;
69417;SDS011;56610;48.872;2.400;2023-04-03T10:19:52;2.60;;;1.88;;
69417;SDS011;56610;48.872;2.400;2023-04-03T10:28:00;1.75;;;1.52;;
69417;SDS011;56610;48.872;2.400;2023-04-03T10:33:20;3.20;;;1.85;;
69417;SDS011;56610;48.872;2.400;2023-04-03T10:35:59;2.15;;;1.90;;
69417;SDS011;56610;48.872;2.400;2023-04-03T10:58:03;1.80;;;1.50;;
69417;SDS011;56610;48.872;2.400;2023-04-03T11:03:01;1.85;;;1.23;;
69417;SDS011;56610;48.872;2.400;2023-04-03T11:05:41;2.63;;;1.55;;
69417;SDS011;56610;48.872;2.400;2023-04-03T11:08:17;2.10;;;1.45;;
69417;SDS011;56610;48.872;2.400;2023-04-03T11:10:53;1.77;;;1.50;;
69417;SDS011;56610;48.872;2.400;2023-04-03T11:15:53;2.55;;;1.60;;
69417;SDS011;56610;48.872;2.400;2023-04-03T11:18:35;1.77;;;1.40;;
69417;SDS011;56610;48.872;2.400;2023-04-03T11:21:22;2.13;;;1.58;;
69417;SDS011;56610;48.872;2.400;2023-04-03T11:24:17;1.70;;;1.30;;
69417;SDS011;56610;48.872;2.400;2023-04-03T11:27:11;2.45;;;1.60;;
69417;SDS011;56610;48.872;2.400;2023-04-03T11:29:44;2.58;;;1.63;;
69417;SDS011;56610;48.872;2.400;2023-04-03T11:35:00;3.90;;;1.67;;
69417;SDS011;56610;48.872;2.400;2023-04-03T11:37:32;1.98;;;1.38;;
69417;SDS011;56610;48.872;2.400;2023-04-03T11:40:04;2.83;;;1.38;;
69417;SDS011;56610;48.872;2.400;2023-04-03T11:42:36;1.45;;;1.30;;
69417;SDS011;56610;48.872;2.400;2023-04-03T11:53:01;1.90;;;1.30;;
69417;SDS011;56610;48.872;2.400;2023-04-03T12:05:52;2.60;;;1.45;;
69417;SDS011;56610;48.872;2.400;2023-04-03T12:08:29;2.53;;;1.35;;
69417;SDS011;56610;48.872;2.400;2023-04-03T12:21:14;6.45;;;1.40;;
69417;SDS011;56610;48.872;2.400;2023-04-03T12:23:57;2.72;;;1.30;;
69417;SDS011;56610;48.872;2.400;2023-04-03T12:26:31;2.67;;;1.08;;
69417;SDS011;56610;48.872;2.400;2023-04-03T12:48:37;3.13;;;1.30;;
69417;SDS011;56610;48.872;2.400;2023-04-03T12:57:11;3.85;;;1.23;;
69417;SDS011;56610;48.872;2.400;2023-04-03T12:59:41;2.65;;;1.08;;
69417;SDS011;56610;48.872;2.400;2023-04-03T13:04:50;1.00;;;0.90;;
69417;SDS011;56610;48.872;2.400;2023-04-03T13:07:23;2.00;;;1.20;;
69417;SDS011;56610;48.872;2.400;2023-04-03T13:12:35;4.05;;;1.50;;
69417;SDS011;56610;48.872;2.400;2023-04-03T13:15:20;2.58;;;1.40;;
69417;SDS011;56610;48.872;2.400;2023-04-03T13:17:54;1.95;;;1.38;;
69417;SDS011;56610;48.872;2.400;2023-04-03T13:20:23;1.77;;;1.15;;
69417;SDS011;56610;48.872;2.400;2023-04-03T13:22:59;2.22;;;1.40;;
69417;SDS011;56610;48.872;2.400;2023-04-03T13:25:35;1.63;;;1.42;;
69417;SDS011;56610;48.872;2.400;2023-04-03T13:28:04;1.70;;;1.10;;
69417;SDS011;56610;48.872;2.400;2023-04-03T13:30:33;1.65;;;1.17;;
69417;SDS011;56610;48.872;2.400;2023-04-03T13:33:04;1.55;;;1.15;;
69417;SDS011;56610;48.872;2.400;2023-04-03T13:35:43;2.80;;;1.20;;
69417;SDS011;56610;48.872;2.400;2023-04-03T13:40:48;1.63;;;1.02;;
69417;SDS011;56610;48.872;2.400;2023-04-03T13:43:37;2.03;;;1.20;;
69417;SDS011;56610;48.872;2.400;2023-04-03T13:48:51;1.80;;;1.13;;
69417;SDS011;56610;48.872;2.400;2023-04-03T13:51:26;2.13;;;1.25;;
69417;SDS011;56610;48.872;2.400;2023-04-03T13:53:58;2.00;;;1.23;;
69417;SDS011;56610;48.872;2.400;2023-04-03T13:56:27;3.45;;;1.30;;
69417;SDS011;56610;48.872;2.400;2023-04-03T14:04:13;2.00;;;1.10;;
69417;SDS011;56610;48.872;2.400;2023-04-03T14:06:39;2.05;;;1.00;;
69417;SDS011;56610;48.872;2.400;2023-04-03T14:09:05;2.15;;;1.40;;
69417;SDS011;56610;48.872;2.400;2023-04-03T14:11:31;2.70;;;1.10;;
69417;SDS011;56610;48.872;2.400;2023-04-03T14:14:06;1.52;;;1.08;;
69417;SDS011;56610;48.872;2.400;2023-04-03T14:16:39;2.45;;;1.30;;
69417;SDS011;56610;48.872;2.400;2023-04-03T14:19:06;2.42;;;1.00;;
69417;SDS011;56610;48.872;2.400;2023-04-03T14:21:35;1.40;;;1.20;;
69417;SDS011;56610;48.872;2.400;2023-04-03T14:24:00;3.67;;;1.40;;
69417;SDS011;56610;48.872;2.400;2023-04-03T14:26:28;2.50;;;1.13;;
69417;SDS011;56610;48.872;2.400;2023-04-03T14:28:55;2.65;;;1.33;;
69417;SDS011;56610;48.872;2.400;2023-04-03T14:31:21;2.50;;;1.30;;
69417;SDS011;56610;48.872;2.400;2023-04-03T14:33:48;2.25;;;1.33;;
69417;SDS011;56610;48.872;2.400;2023-04-03T14:36:15;1.73;;;1.00;;
69417;SDS011;56610;48.872;2.400;2023-04-03T14:38:50;1.67;;;1.13;;
69417;SDS011;56610;48.872;2.400;2023-04-03T14:41:17;2.58;;;1.30;;
69417;SDS011;56610;48.872;2.400;2023-04-03T14:43:45;3.55;;;1.52;;
69417;SDS011;56610;48.872;2.400;2023-04-03T14:46:15;1.55;;;1.23;;
69417;SDS011;56610;48.872;2.400;2023-04-03T14:48:44;2.15;;;1.20;;
69417;SDS011;56610;48.872;2.400;2023-04-03T14:51:11;2.85;;;1.10;;
69417;SDS011;56610;48.872;2.400;2023-04-03T14:53:37;3.15;;;1.35;;
69417;SDS011;56610;48.872;2.400;2023-04-03T14:56:08;1.10;;;0.90;;
69417;SDS011;56610;48.872;2.400;2023-04-03T14:58:47;2.38;;;1.25;;
69417;SDS011;56610;48.872;2.400;2023-04-03T15:01:15;2.00;;;1.10;;
69417;SDS011;56610;48.872;2.400;2023-04-03T15:03:45;2.10;;;1.05;;
69417;SDS011;56610;48.872;2.400;2023-04-03T15:06:12;2.03;;;1.25;;
69417;SDS011;56610;48.872;2.400;2023-04-03T15:08:39;3.95;;;1.13;;
69417;SDS011;56610;48.872;2.400;2023-04-03T15:11:06;1.60;;;1.05;;
69417;SDS011;56610;48.872;2.400;2023-04-03T15:13:32;1.35;;;1.00;;
69417;SDS011;56610;48.872;2.400;2023-04-03T15:15:58;1.33;;;1.10;;
69417;SDS011;56610;48.872;2.400;2023-04-03T15:18:24;1.90;;;0.90;;
69417;SDS011;56610;48.872;2.400;2023-04-03T15:20:52;1.30;;;0.93;;
69417;SDS011;56610;48.872;2.400;2023-04-03T15:23:19;4.28;;;1.20;;
69417;SDS011;56610;48.872;2.400;2023-04-03T15:25:45;1.52;;;1.08;;
69417;SDS011;56610;48.872;2.400;2023-04-03T15:31:01;1.92;;;1.13;;
69417;SDS011;56610;48.872;2.400;2023-04-03T15:33:28;1.83;;;1.02;;
69417;SDS011;56610;48.872;2.400;2023-04-03T15:35:53;1.38;;;0.98;;
69417;SDS011;56610;48.872;2.400;2023-04-03T15:38:19;2.28;;;1.15;;
69417;SDS011;56610;48.872;2.400;2023-04-03T15:40:45;1.38;;;1.10;;
69417;SDS011;56610;48.872;2.400;2023-04-03T15:43:12;1.75;;;1.20;;
69417;SDS011;56610;48.872;2.400;2023-04-03T15:45:39;1.50;;;1.00;;
69417;SDS011;56610;48.872;2.400;2023-04-03T15:48:05;2.17;;;1.00;;
69417;SDS011;56610;48.872;2.400;2023-04-03T15:50:32;2.30;;;1.25;;
69417;SDS011;56610;48.872;2.400;2023-04-03T15:52:58;1.88;;;1.00;;
69417;SDS011;56610;48.872;2.400;2023-04-03T15:55:26;1.67;;;1.10;;
69417;SDS011;56610;48.872;2.400;2023-04-03T15:57:53;2.33;;;1.00;;
69417;SDS011;56610;48.872;2.400;2023-04-03T16:00:19;2.53;;;1.35;;
69417;SDS011;56610;48.872;2.400;2023-04-03T16:02:46;1.73;;;1.00;;
69417;SDS011;56610;48.872;2.400;2023-04-03T16:05:13;1.70;;;1.33;;
69417;SDS011;56610;48.872;2.400;2023-04-03T16:07:40;2.83;;;1.20;;
69417;SDS011;56610;48.872;2.400;2023-04-03T16:10:09;2.53;;;1.45;;
69417;SDS011;56610;48.872;2.400;2023-04-03T16:12:37;1.45;;;1.02;;
69417;SDS011;56610;48.872;2.400;2023-04-03T16:15:03;3.00;;;1.40;;
69417;SDS011;56610;48.872;2.400;2023-04-03T16:17:29;2.17;;;1.20;;
69417;SDS011;56610;48.872;2.400;2023-04-03T16:19:56;2.13;;;1.30;;
69417;SDS011;56610;48.872;2.400;2023-04-03T16:22:23;2.63;;;1.40;;
69417;SDS011;56610;48.872;2.400;2023-04-03T16:24:49;1.63;;;1.25;;
69417;SDS011;56610;48.872;2.400;2023-04-03T16:27:15;1.92;;;1.00;;
69417;SDS011;56610;48.872;2.400;2023-04-03T16:29:41;2.35;;;1.58;;
69417;SDS011;56610;48.872;2.400;2023-04-03T16:32:07;3.05;;;1.80;;
69417;SDS011;56610;48.872;2.400;2023-04-03T16:34:33;1.75;;;1.15;;
69417;SDS011;56610;48.872;2.400;2023-04-03T16:37:01;2.78;;;1.55;;
69417;SDS011;56610;48.872;2.400;2023-04-03T16:39:26;2.08;;;1.10;;
69417;SDS011;56610;48.872;2.400;2023-04-03T16:41:52;2.65;;;1.20;;
69417;SDS011;56610;48.872;2.400;2023-04-03T16:44:18;2.72;;;1.23;;
69417;SDS011;56610;48.872;2.400;2023-04-03T16:46:43;1.48;;;1.20;;
69417;SDS011;56610;48.872;2.400;2023-04-03T16:49:09;2.10;;;1.30;;
69417;SDS011;56610;48.872;2.400;2023-04-03T16:51:35;3.00;;;1.25;;
69417;SDS011;56610;48.872;2.400;2023-04-03T16:54:00;2.10;;;1.25;;
69417;SDS011;56610;48.872;2.400;2023-04-03T16:56:26;2.40;;;1.25;;
69417;SDS011;56610;48.872;2.400;2023-04-03T16:58:52;2.03;;;1.20;;
69417;SDS011;56610;48.872;2.400;2023-04-03T17:01:18;1.80;;;1.38;;
69417;SDS011;56610;48.872;2.400;2023-04-03T17:03:46;1.92;;;1.33;;
69417;SDS011;56610;48.872;2.400;2023-04-03T17:06:13;2.30;;;1.10;;
69417;SDS011;56610;48.872;2.400;2023-04-03T17:08:43;3.40;;;1.42;;
69417;SDS011;56610;48.872;2.400;2023-04-03T17:11:09;3.05;;;1.42;;